sensor_id;sensor_type;location;lat;lon;timestamp;pressure;altitude;pressure_sealevel;temperature;humidity
53550;BME280;67273;52.914;-0.982;2023-02-10T21:15:21;102958.03;;;17.47;41.04
53550;BME280;67273;52.914;-0.982;2023-02-10T21:17:47;102963.13;;;17.42;41.56
53550;BME280;67273;52.914;-0.982;2023-02-10T21:20:12;102959.09;;;17.38;41.40
53550;BME280;67273;52.914;-0.982;2023-02-10T21:22:38;102951.28;;;17.35;41.36
53550;BME280;67273;52.914;-0.982;2023-02-10T21:25:06;102951.63;;;17.32;40.86
53550;BME280;67273;52.914;-0.982;2023-02-10T21:27:34;102956.53;;;17.28;41.25
53550;BME280;67273;52.914;-0.982;2023-02-10T21:30:00;102963.88;;;17.27;41.29
53550;BME280;67273;52.914;-0.982;2023-02-10T21:32:29;102961.97;;;17.28;40.86
53550;BME280;67273;52.914;-0.982;2023-02-10T21:34:55;102977.44;;;17.27;41.10
53550;BME280;67273;52.914;-0.982;2023-02-10T21:37:20;102972.19;;;17.26;40.81
53550;BME280;67273;52.914;-0.982;2023-02-10T21:39:46;102973.00;;;17.26;40.92
53550;BME280;67273;52.914;-0.982;2023-02-10T21:42:12;102971.50;;;17.24;40.90
53550;BME280;67273;52.914;-0.982;2023-02-10T21:44:38;102969.63;;;17.24;40.73
53550;BME280;67273;52.914;-0.982;2023-02-10T21:47:05;102974.41;;;17.22;40.83
53550;BME280;67273;52.914;-0.982;2023-02-10T21:49:33;102989.69;;;17.23;40.78
53550;BME280;67273;52.914;-0.982;2023-02-10T21:52:01;102992.41;;;17.23;40.80
53550;BME280;67273;52.914;-0.982;2023-02-10T21:54:27;103001.41;;;17.24;40.68
53550;BME280;67273;52.914;-0.982;2023-02-10T21:56:54;103004.13;;;17.24;40.79
53550;BME280;67273;52.914;-0.982;2023-02-10T21:59:22;103001.56;;;17.22;40.58
53550;BME280;67273;52.914;-0.982;2023-02-10T22:01:48;103000.72;;;17.22;40.79
53550;BME280;67273;52.914;-0.982;2023-02-10T22:04:14;103003.44;;;17.22;40.51
53550;BME280;67273;52.914;-0.982;2023-02-10T22:06:43;102998.19;;;17.20;40.74
53550;BME280;67273;52.914;-0.982;2023-02-10T22:09:11;103000.91;;;17.20;40.50
53550;BME280;67273;52.914;-0.982;2023-02-10T22:11:37;102999.00;;;17.21;40.44
53550;BME280;67273;52.914;-0.982;2023-02-10T22:14:03;102996.47;;;17.19;40.57
53550;BME280;67273;52.914;-0.982;2023-02-10T22:16:30;103002.06;;;17.18;40.83
53550;BME280;67273;52.914;-0.982;2023-02-10T22:18:56;103001.22;;;17.17;40.62
53550;BME280;67273;52.914;-0.982;2023-02-10T22:21:24;103007.69;;;17.16;40.63
53550;BME280;67273;52.914;-0.982;2023-02-10T22:23:53;103002.28;;;17.16;40.85
53550;BME280;67273;52.914;-0.982;2023-02-10T22:26:22;103002.28;;;17.16;40.71
53550;BME280;67273;52.914;-0.982;2023-02-10T22:28:48;102992.56;;;17.14;40.43
53550;BME280;67273;52.914;-0.982;2023-02-10T22:31:16;103001.75;;;17.13;40.55
53550;BME280;67273;52.914;-0.982;2023-02-10T22:33:42;102998.19;;;17.12;40.84
53550;BME280;67273;52.914;-0.982;2023-02-10T22:36:09;102988.34;;;17.11;40.71
53550;BME280;67273;52.914;-0.982;2023-02-10T22:38:36;102988.34;;;17.11;40.90
53550;BME280;67273;52.914;-0.982;2023-02-10T22:41:07;102999.56;;;17.08;40.89
53550;BME280;67273;52.914;-0.982;2023-02-10T22:43:33;103001.25;;;17.09;40.94
53550;BME280;67273;52.914;-0.982;2023-02-10T22:45:59;103005.81;;;17.08;40.57
53550;BME280;67273;52.914;-0.982;2023-02-10T22:48:25;103008.69;;;17.07;40.59
53550;BME280;67273;52.914;-0.982;2023-02-10T22:50:50;103009.56;;;17.07;40.57
53550;BME280;67273;52.914;-0.982;2023-02-10T22:53:16;103012.47;;;17.06;40.72
53550;BME280;67273;52.914;-0.982;2023-02-10T22:55:42;103010.75;;;17.05;40.70
53550;BME280;67273;52.914;-0.982;2023-02-10T22:58:09;103020.59;;;17.06;40.64
53550;BME280;67273;52.914;-0.982;2023-02-10T23:00:35;103009.06;;;17.04;40.99
53550;BME280;67273;52.914;-0.982;2023-02-10T23:03:05;103001.94;;;17.03;40.70
53550;BME280;67273;52.914;-0.982;2023-02-10T23:05:31;103003.81;;;17.02;40.85
53550;BME280;67273;52.914;-0.982;2023-02-10T23:07:57;103003.97;;;17.01;41.01
53550;BME280;67273;52.914;-0.982;2023-02-10T23:10:22;103008.38;;;17.02;40.73
53550;BME280;67273;52.914;-0.982;2023-02-10T23:12:48;103004.97;;;17.00;40.77
53550;BME280;67273;52.914;-0.982;2023-02-10T23:15:16;103000.59;;;16.99;41.05
53550;BME280;67273;52.914;-0.982;2023-02-10T23:17:41;103004.31;;;16.98;41.04
53550;BME280;67273;52.914;-0.982;2023-02-10T23:20:08;103000.59;;;16.99;40.86
53550;BME280;67273;52.914;-0.982;2023-02-10T23:22:34;102998.19;;;16.96;41.00
53550;BME280;67273;52.914;-0.982;2023-02-10T23:25:00;102999.22;;;16.95;41.06
53550;BME280;67273;52.914;-0.982;2023-02-10T23:27:26;103001.91;;;16.95;41.04
53550;BME280;67273;52.914;-0.982;2023-02-10T23:29:54;102999.56;;;16.91;41.05
53550;BME280;67273;52.914;-0.982;2023-02-10T23:32:21;102986.00;;;16.91;41.12
53550;BME280;67273;52.914;-0.982;2023-02-10T23:34:47;102985.13;;;16.91;41.37
53550;BME280;67273;52.914;-0.982;2023-02-10T23:37:12;102973.44;;;16.90;41.07
53550;BME280;67273;52.914;-0.982;2023-02-10T23:39:38;102974.47;;;16.89;41.16
53550;BME280;67273;52.914;-0.982;2023-02-10T23:42:04;102978.19;;;16.88;41.08
53550;BME280;67273;52.914;-0.982;2023-02-10T23:44:30;102976.47;;;16.87;41.32
53550;BME280;67273;52.914;-0.982;2023-02-10T23:46:55;102977.34;;;16.88;41.01
53550;BME280;67273;52.914;-0.982;2023-02-10T23:49:23;102983.63;;;16.88;41.04
53550;BME280;67273;52.914;-0.982;2023-02-10T23:51:48;102984.63;;;16.87;41.15
53550;BME280;67273;52.914;-0.982;2023-02-10T23:54:14;102986.50;;;16.87;40.99
53550;BME280;67273;52.914;-0.982;2023-02-10T23:56:40;102992.75;;;16.87;40.97
53550;BME280;67273;52.914;-0.982;2023-02-10T23:59:06;102991.09;;;16.86;41.10
